createdAt,value
2022-08-25T00:00:24.140Z,101981.31
2022-08-25T00:00:54.513Z,101979.48
2022-08-25T00:01:24.680Z,101975.33
2022-08-25T00:01:57.534Z,101977.31
2022-08-25T00:02:27.835Z,101978.95
2022-08-25T00:02:58.160Z,101978.83
2022-08-25T00:03:28.624Z,101978.99
2022-08-25T00:04:03.551Z,101984.12
2022-08-25T00:04:33.754Z,101979.80
2022-08-25T00:05:05.309Z,101975.67
2022-08-25T00:05:36.641Z,101975.50
2022-08-25T00:06:08.234Z,101970.86
2022-08-25T00:06:38.229Z,101982.95
2022-08-25T00:07:08.209Z,101972.70
2022-08-25T00:07:38.220Z,101979.98
2022-08-25T00:08:08.213Z,101974.85
2022-08-25T00:08:38.207Z,101984.95
2022-08-25T00:09:08.207Z,101984.30
2022-08-25T00:09:38.198Z,101975.00
2022-08-25T00:10:08.187Z,101980.48
2022-08-25T00:10:38.163Z,101982.45
2022-08-25T00:11:08.146Z,101977.00
2022-08-25T00:11:38.134Z,101981.31
2022-08-25T00:12:08.144Z,101976.67
2022-08-25T00:12:38.156Z,101974.36
2022-08-25T00:13:08.143Z,101978.33
2022-08-25T00:13:38.155Z,101979.66
2022-08-25T00:14:08.174Z,101978.84
2022-08-25T00:14:38.167Z,101976.52
2022-08-25T00:15:08.155Z,101976.36
2022-08-25T00:15:38.198Z,101975.02
2022-08-25T00:16:08.263Z,101981.16
2022-08-25T00:16:38.316Z,101969.40
2022-08-25T00:17:08.328Z,101970.71
2022-08-25T00:17:38.328Z,101976.52
2022-08-25T00:18:16.984Z,101973.88
2022-08-25T00:18:43.243Z,101973.05
2022-08-25T00:19:13.225Z,101970.22
2022-08-25T00:19:43.225Z,101970.38
2022-08-25T00:20:13.243Z,101974.36
2022-08-25T00:20:43.345Z,101974.52
2022-08-25T00:21:18.173Z,101971.88
2022-08-25T00:21:48.154Z,101971.38
2022-08-25T00:22:18.164Z,101972.55
2022-08-25T00:22:48.160Z,101974.88
2022-08-25T00:23:18.145Z,101970.88
2022-08-25T00:23:48.157Z,101973.08
2022-08-25T00:24:18.138Z,101970.59
2022-08-25T00:24:49.902Z,101972.06
2022-08-25T00:25:19.891Z,101979.53
2022-08-25T00:25:49.922Z,101979.69
2022-08-25T00:26:19.909Z,101973.88
2022-08-25T00:26:49.892Z,101973.72
2022-08-25T00:27:19.898Z,101970.41
2022-08-25T00:27:49.888Z,101972.24
2022-08-25T00:28:19.872Z,101976.84
2022-08-25T00:28:49.894Z,101976.19
2022-08-25T00:29:19.900Z,101975.21
2022-08-25T00:29:49.918Z,101972.23
2022-08-25T00:30:19.898Z,101967.09
2022-08-25T00:30:50.022Z,101976.37
2022-08-25T00:31:20.211Z,101970.41
2022-08-25T00:31:50.265Z,101976.52
2022-08-25T00:32:20.258Z,101974.56
2022-08-25T00:32:55.325Z,101973.08
2022-08-25T00:33:25.172Z,101977.22
2022-08-25T00:33:55.156Z,101978.20
2022-08-25T00:34:25.136Z,101972.89
2022-08-25T00:34:55.171Z,101973.88
2022-08-25T00:35:25.162Z,101972.74
2022-08-25T00:35:55.146Z,101975.89
2022-08-25T00:36:25.147Z,101975.55
2022-08-25T00:36:55.147Z,101970.42
2022-08-25T00:37:25.165Z,101974.40
2022-08-25T00:37:55.148Z,101973.58
2022-08-25T00:38:25.152Z,101963.62
2022-08-25T00:38:55.159Z,101972.91
2022-08-25T00:39:25.177Z,101978.38
2022-08-25T00:39:55.246Z,101975.39
2022-08-25T00:40:25.360Z,101968.09
2022-08-25T00:40:55.381Z,101979.04
2022-08-25T00:41:26.259Z,101979.03
2022-08-25T00:41:56.284Z,101978.69
2022-08-25T00:42:26.294Z,101975.73
2022-08-25T00:42:56.307Z,101976.05
2022-08-25T00:43:26.300Z,101973.41
2022-08-25T00:43:56.339Z,101977.03
2022-08-25T00:44:26.341Z,101972.74
2022-08-25T00:44:56.463Z,101978.88
2022-08-25T00:45:26.474Z,101973.22
2022-08-25T00:45:56.485Z,101967.92
2022-08-25T00:46:26.564Z,101975.56
2022-08-25T00:46:56.603Z,101964.62
2022-08-25T00:47:26.679Z,101973.24
2022-08-25T00:47:59.968Z,101975.23
2022-08-25T00:48:30.159Z,101970.09
2022-08-25T00:49:00.153Z,101970.76
2022-08-25T00:49:30.130Z,101969.44
2022-08-25T00:50:00.197Z,101973.25
2022-08-25T00:50:30.965Z,101976.55
2022-08-25T00:51:02.058Z,101970.77
2022-08-25T00:51:32.037Z,101970.42
2022-08-25T00:52:02.056Z,101973.74
2022-08-25T00:52:32.057Z,101969.44
2022-08-25T00:53:02.070Z,101966.12
2022-08-25T00:53:32.060Z,101971.09
2022-08-25T00:54:02.061Z,101966.29
2022-08-25T00:54:32.054Z,101973.09
2022-08-25T00:55:07.876Z,101967.95
2022-08-25T00:55:36.987Z,101969.27
2022-08-25T00:56:06.985Z,101971.26
2022-08-25T00:56:37.009Z,101965.64
2022-08-25T00:57:06.990Z,101963.81
2022-08-25T00:57:36.965Z,101970.09
2022-08-25T00:58:06.953Z,101966.78
2022-08-25T00:58:36.969Z,101968.12
2022-08-25T00:59:06.974Z,101967.94
2022-08-25T00:59:36.951Z,101970.09
2022-08-25T01:00:06.937Z,101972.59
2022-08-25T01:00:36.944Z,101967.28
2022-08-25T01:01:06.996Z,101969.28
2022-08-25T01:01:37.105Z,101970.43
2022-08-25T01:02:07.134Z,101966.79
2022-08-25T01:02:40.231Z,101966.33
2022-08-25T01:03:10.241Z,101966.66
2022-08-25T01:03:40.225Z,101969.64
2022-08-25T01:04:10.215Z,101971.28
2022-08-25T01:04:40.217Z,101968.64
2022-08-25T01:05:10.216Z,101968.31
2022-08-25T01:05:40.219Z,101971.77
2022-08-25T01:06:10.216Z,101972.27
2022-08-25T01:06:40.191Z,101974.59
2022-08-25T01:07:11.232Z,101975.07
2022-08-25T01:07:45.115Z,101974.76
2022-08-25T01:08:16.439Z,101970.78
2022-08-25T01:08:46.580Z,101972.29
2022-08-25T01:09:16.559Z,101971.78
2022-08-25T01:09:46.553Z,101970.80
2022-08-25T01:10:16.568Z,101974.27
2022-08-25T01:10:46.573Z,101971.12
2022-08-25T01:11:16.551Z,101972.62
2022-08-25T01:11:46.551Z,101969.81
2022-08-25T01:12:16.546Z,101972.44
2022-08-25T01:12:46.537Z,101973.93
2022-08-25T01:13:16.951Z,101971.47
2022-08-25T01:13:46.946Z,101973.45
2022-08-25T01:14:16.961Z,101972.46
2022-08-25T01:14:46.947Z,101974.27
2022-08-25T01:15:16.963Z,101975.27
2022-08-25T01:15:47.082Z,101971.12
2022-08-25T01:16:17.166Z,101970.95
2022-08-25T01:16:47.206Z,101974.11
2022-08-25T01:17:21.252Z,101970.30
2022-08-25T01:17:51.228Z,101970.62
2022-08-25T01:18:21.211Z,101971.13
2022-08-25T01:18:51.190Z,101967.98
2022-08-25T01:19:21.208Z,101969.48
2022-08-25T01:19:51.196Z,101975.59
2022-08-25T01:20:21.204Z,101969.64
2022-08-25T01:20:51.204Z,101971.96
2022-08-25T01:21:21.203Z,101972.46
2022-08-25T01:21:51.223Z,101970.47
2022-08-25T01:22:21.247Z,101973.28
2022-08-25T01:22:55.440Z,101970.14
2022-08-25T01:23:25.505Z,101971.13
2022-08-25T01:23:55.497Z,101972.62
2022-08-25T01:24:25.488Z,101971.63
2022-08-25T01:24:55.478Z,101974.12
2022-08-25T01:25:25.500Z,101972.62
2022-08-25T01:25:55.510Z,101971.98
2022-08-25T01:26:30.595Z,101973.30
2022-08-25T01:27:00.434Z,101973.45
2022-08-25T01:27:30.443Z,101973.97
2022-08-25T01:28:00.514Z,101971.63
2022-08-25T01:28:30.501Z,101973.29
2022-08-25T01:29:00.520Z,101972.14
2022-08-25T01:29:30.502Z,101971.64
2022-08-25T01:30:00.490Z,101972.30
2022-08-25T01:30:30.525Z,101969.64
2022-08-25T01:31:00.651Z,101968.67
2022-08-25T01:31:30.767Z,101974.66
2022-08-25T01:32:00.782Z,101973.00
2022-08-25T01:32:30.776Z,101970.52
2022-08-25T01:33:02.654Z,101970.34
2022-08-25T01:33:32.653Z,101976.12
2022-08-25T01:34:02.677Z,101975.28
2022-08-25T01:34:32.677Z,101977.27
2022-08-25T01:35:02.682Z,101973.46
2022-08-25T01:35:32.672Z,101970.02
2022-08-25T01:36:02.676Z,101970.51
2022-08-25T01:36:32.699Z,101974.62
2022-08-25T01:37:02.701Z,101972.30
2022-08-25T01:37:32.696Z,101977.27
2022-08-25T01:38:02.772Z,101970.66
2022-08-25T01:38:32.783Z,101972.66
2022-08-25T01:39:02.761Z,101973.98
2022-08-25T01:39:32.765Z,101973.16
2022-08-25T01:40:02.844Z,101974.81
2022-08-25T01:40:32.897Z,101977.80
2022-08-25T01:41:02.898Z,101975.65
2022-08-25T01:41:32.882Z,101975.98
2022-08-25T01:42:02.878Z,101972.65
2022-08-25T01:42:32.891Z,101975.15
2022-08-25T01:43:02.885Z,101972.34
2022-08-25T01:43:32.897Z,101974.48
2022-08-25T01:44:02.892Z,101977.47
2022-08-25T01:44:32.890Z,101974.80
2022-08-25T01:45:02.871Z,101975.31
2022-08-25T01:45:32.874Z,101972.00
2022-08-25T01:46:02.990Z,101971.34
2022-08-25T01:46:33.132Z,101975.31
2022-08-25T01:47:03.135Z,101972.66
2022-08-25T01:47:33.124Z,101975.81
2022-08-25T01:48:03.262Z,101974.98
2022-08-25T01:48:33.404Z,101970.66
2022-08-25T01:49:06.692Z,101974.98
2022-08-25T01:49:36.917Z,101974.48
2022-08-25T01:50:06.916Z,101976.30
2022-08-25T01:50:36.899Z,101973.66
2022-08-25T01:51:06.894Z,101974.33
2022-08-25T01:51:36.886Z,101976.95
2022-08-25T01:52:07.003Z,101980.78
2022-08-25T01:52:37.020Z,101975.98
2022-08-25T01:53:07.022Z,101976.98
2022-08-25T01:53:37.074Z,101977.82
2022-08-25T01:54:07.094Z,101981.61
2022-08-25T01:54:37.079Z,101977.97
2022-08-25T01:55:07.063Z,101981.61
2022-08-25T01:55:37.067Z,101979.48
2022-08-25T01:56:09.582Z,101977.80
2022-08-25T01:56:39.870Z,101976.48
2022-08-25T01:57:09.876Z,101980.62
2022-08-25T01:57:39.855Z,101979.13
2022-08-25T01:58:09.836Z,101980.95
2022-08-25T01:58:39.818Z,101980.79
2022-08-25T01:59:09.822Z,101977.33
2022-08-25T01:59:39.825Z,101975.34
2022-08-25T02:00:09.818Z,101982.30
2022-08-25T02:00:39.802Z,101979.94
2022-08-25T02:01:09.854Z,101979.80
2022-08-25T02:01:39.899Z,101982.28
2022-08-25T02:02:10.594Z,101976.31
2022-08-25T02:02:42.826Z,101976.48
2022-08-25T02:03:18.990Z,101983.94
2022-08-25T02:03:48.974Z,101976.02
2022-08-25T02:04:18.951Z,101980.33
2022-08-25T02:04:51.768Z,101984.95
2022-08-25T02:05:23.664Z,101983.31
2022-08-25T02:05:53.922Z,101980.31
2022-08-25T02:06:27.660Z,101983.45
2022-08-25T02:06:58.829Z,101981.47
2022-08-25T02:07:28.812Z,101982.48
2022-08-25T02:07:58.823Z,101981.16
2022-08-25T02:08:28.829Z,101980.83
2022-08-25T02:08:58.822Z,101979.83
2022-08-25T02:09:28.809Z,101980.98
2022-08-25T02:09:58.813Z,101981.16
2022-08-25T02:10:33.205Z,101980.64
2022-08-25T02:11:03.208Z,101977.52
2022-08-25T02:11:33.191Z,101983.62
2022-08-25T02:12:03.189Z,101980.00
2022-08-25T02:12:33.183Z,101984.47
2022-08-25T02:13:03.180Z,101982.12
2022-08-25T02:13:36.075Z,101984.78
2022-08-25T02:14:06.083Z,101983.81
2022-08-25T02:14:36.081Z,101981.64
2022-08-25T02:15:06.066Z,101983.31
2022-08-25T02:15:36.081Z,101985.47
2022-08-25T02:16:06.079Z,101985.61
2022-08-25T02:16:36.164Z,101981.64
2022-08-25T02:17:06.383Z,101985.12
2022-08-25T02:17:36.414Z,101988.77
2022-08-25T02:18:06.568Z,101983.46
2022-08-25T02:18:36.666Z,101985.80
2022-08-25T02:19:06.672Z,101983.31
2022-08-25T02:19:36.683Z,101987.27
2022-08-25T02:20:06.671Z,101987.27
2022-08-25T02:20:36.665Z,101989.27
2022-08-25T02:21:06.697Z,101987.94
2022-08-25T02:21:36.693Z,101988.43
2022-08-25T02:22:06.689Z,101983.81
2022-08-25T02:22:36.685Z,101988.30
2022-08-25T02:23:06.676Z,101986.12
2022-08-25T02:23:36.672Z,101991.28
2022-08-25T02:24:06.657Z,101988.61
2022-08-25T02:24:36.664Z,101988.95
2022-08-25T02:25:06.650Z,101987.12
2022-08-25T02:25:36.659Z,101984.80
2022-08-25T02:26:06.654Z,101986.14
2022-08-25T02:26:36.639Z,101991.09
2022-08-25T02:27:06.622Z,101987.80
2022-08-25T02:27:36.601Z,101985.13
2022-08-25T02:28:06.830Z,101982.67
2022-08-25T02:28:36.870Z,101986.64
2022-08-25T02:29:06.858Z,101981.67
2022-08-25T02:29:36.880Z,101979.19
2022-08-25T02:30:07.206Z,101979.83
2022-08-25T02:30:37.231Z,101982.16
2022-08-25T02:31:07.291Z,101981.17
2022-08-25T02:31:37.311Z,101980.33
2022-08-25T02:32:07.292Z,101982.66
2022-08-25T02:32:37.285Z,101982.66
2022-08-25T02:33:07.267Z,101983.83
2022-08-25T02:33:37.277Z,101985.13
2022-08-25T02:34:07.289Z,101987.47
2022-08-25T02:34:37.268Z,101987.14
2022-08-25T02:35:07.257Z,101986.62
2022-08-25T02:35:37.237Z,101982.83
2022-08-25T02:36:07.244Z,101984.64
2022-08-25T02:36:37.228Z,101984.97
2022-08-25T02:37:07.221Z,101986.95
2022-08-25T02:37:37.213Z,101982.50
2022-08-25T02:38:07.224Z,101982.16
2022-08-25T02:38:37.223Z,101983.16
2022-08-25T02:39:07.199Z,101981.83
2022-08-25T02:39:37.205Z,101982.83
2022-08-25T02:40:07.283Z,101985.31
2022-08-25T02:40:37.314Z,101987.63
2022-08-25T02:41:07.302Z,101980.50
2022-08-25T02:41:37.318Z,101983.48
2022-08-25T02:42:07.303Z,101983.33
2022-08-25T02:42:37.541Z,101985.65
2022-08-25T02:43:07.558Z,101987.47
2022-08-25T02:43:37.548Z,101982.34
2022-08-25T02:44:07.535Z,101978.86
2022-08-25T02:44:37.544Z,101983.98
2022-08-25T02:45:07.536Z,101977.52
2022-08-25T02:45:37.612Z,101981.34
2022-08-25T02:46:07.731Z,101980.68
2022-08-25T02:46:37.804Z,101977.68
2022-08-25T02:47:07.792Z,101981.16
2022-08-25T02:47:37.789Z,101978.71
2022-08-25T02:48:07.766Z,101980.52
2022-08-25T02:48:37.774Z,101976.39
2022-08-25T02:49:07.767Z,101982.52
2022-08-25T02:49:37.772Z,101980.20
2022-08-25T02:50:07.773Z,101977.56
2022-08-25T02:50:37.761Z,101979.54
2022-08-25T02:51:07.742Z,101974.55
2022-08-25T02:51:37.755Z,101975.90
2022-08-25T02:52:07.776Z,101974.75
2022-08-25T02:52:37.775Z,101978.05
2022-08-25T02:53:07.801Z,101979.05
2022-08-25T02:53:37.794Z,101977.55
2022-08-25T02:54:07.822Z,101979.55
2022-08-25T02:54:37.813Z,101979.70
2022-08-25T02:55:07.789Z,101980.03
2022-08-25T02:55:37.774Z,101978.05
2022-08-25T02:56:07.799Z,101974.56
2022-08-25T02:56:37.775Z,101972.25
2022-08-25T02:57:07.751Z,101973.25
2022-08-25T02:57:37.735Z,101972.27
2022-08-25T02:58:07.764Z,101968.77
2022-08-25T02:58:37.772Z,101967.45
2022-08-25T02:59:07.754Z,101967.45
2022-08-25T02:59:37.760Z,101967.80
2022-08-25T03:00:07.771Z,101968.95
2022-08-25T03:00:37.751Z,101970.43
2022-08-25T03:01:08.091Z,101971.11
2022-08-25T03:01:38.256Z,101972.09
2022-08-25T03:02:08.268Z,101969.12
2022-08-25T03:02:38.269Z,101967.30
2022-08-25T03:03:08.262Z,101966.95
2022-08-25T03:03:39.499Z,101965.95
2022-08-25T03:04:09.564Z,101969.62
2022-08-25T03:04:39.668Z,101965.97
2022-08-25T03:05:09.867Z,101965.81
2022-08-25T03:05:39.866Z,101963.80
2022-08-25T03:06:09.882Z,101963.31
2022-08-25T03:06:39.900Z,101965.30
2022-08-25T03:07:09.900Z,101964.30
2022-08-25T03:07:42.521Z,101965.30
2022-08-25T03:08:12.515Z,101964.48
2022-08-25T03:08:42.493Z,101961.98
2022-08-25T03:09:12.489Z,101961.48
2022-08-25T03:09:42.525Z,101962.66
2022-08-25T03:10:12.516Z,101964.81
2022-08-25T03:10:42.522Z,101961.01
2022-08-25T03:11:12.526Z,101962.16
2022-08-25T03:11:42.519Z,101962.65
2022-08-25T03:12:12.501Z,101964.80
2022-08-25T03:12:42.498Z,101966.12
2022-08-25T03:13:12.491Z,101964.14
2022-08-25T03:13:42.479Z,101965.46
2022-08-25T03:14:12.459Z,101963.80
2022-08-25T03:14:42.448Z,101963.80
2022-08-25T03:15:13.399Z,101963.98
2022-08-25T03:15:43.402Z,101958.34
2022-08-25T03:16:13.484Z,101966.28
2022-08-25T03:16:46.222Z,101966.45
2022-08-25T03:17:16.506Z,101959.98
2022-08-25T03:17:46.480Z,101963.14
2022-08-25T03:18:17.037Z,101960.00
2022-08-25T03:18:47.229Z,101958.51
2022-08-25T03:19:17.225Z,101962.16
2022-08-25T03:19:47.221Z,101963.46
2022-08-25T03:20:17.217Z,101966.14
2022-08-25T03:20:47.204Z,101962.30
2022-08-25T03:21:17.218Z,101965.80
2022-08-25T03:21:47.672Z,101960.83
2022-08-25T03:22:17.661Z,101962.48
2022-08-25T03:22:47.658Z,101963.81
2022-08-25T03:23:17.632Z,101962.16
2022-08-25T03:23:47.637Z,101963.64
2022-08-25T03:24:17.627Z,101961.66
2022-08-25T03:24:47.611Z,101964.12
2022-08-25T03:25:22.141Z,101962.17
2022-08-25T03:25:52.524Z,101965.31
2022-08-25T03:26:24.593Z,101963.81
2022-08-25T03:26:54.607Z,101964.80
2022-08-25T03:27:24.611Z,101963.62
2022-08-25T03:27:54.629Z,101964.30
2022-08-25T03:28:29.797Z,101962.66
2022-08-25T03:28:59.545Z,101963.13
2022-08-25T03:29:29.551Z,101965.30
2022-08-25T03:29:59.525Z,101966.61
2022-08-25T03:30:29.521Z,101959.67
2022-08-25T03:30:59.512Z,101961.31
2022-08-25T03:31:29.620Z,101956.19
2022-08-25T03:31:59.747Z,101960.66
2022-08-25T03:32:29.765Z,101960.65
2022-08-25T03:32:59.779Z,101962.16
2022-08-25T03:33:29.781Z,101958.84
2022-08-25T03:33:59.759Z,101958.02
2022-08-25T03:34:29.753Z,101960.16
2022-08-25T03:34:59.748Z,101957.83
2022-08-25T03:35:29.730Z,101955.67
2022-08-25T03:36:01.043Z,101958.00
2022-08-25T03:36:31.024Z,101956.36
2022-08-25T03:37:01.020Z,101957.18
2022-08-25T03:37:31.039Z,101957.83
2022-08-25T03:38:01.035Z,101955.53
2022-08-25T03:38:31.031Z,101962.81
2022-08-25T03:39:01.024Z,101957.50
2022-08-25T03:39:31.013Z,101954.87
2022-08-25T03:40:01.048Z,101959.67
2022-08-25T03:40:31.120Z,101958.02
2022-08-25T03:41:01.125Z,101956.19
2022-08-25T03:41:31.109Z,101960.00
2022-08-25T03:42:01.123Z,101958.67
2022-08-25T03:42:31.118Z,101958.67
2022-08-25T03:43:01.105Z,101958.03
2022-08-25T03:43:31.087Z,101957.87
2022-08-25T03:44:01.088Z,101957.87
2022-08-25T03:44:31.070Z,101956.88
2022-08-25T03:45:01.099Z,101955.03
2022-08-25T03:45:31.150Z,101959.51
2022-08-25T03:46:01.207Z,101955.03
2022-08-25T03:46:31.245Z,101953.21
2022-08-25T03:47:01.238Z,101952.23
2022-08-25T03:47:31.243Z,101954.38
2022-08-25T03:48:01.287Z,101952.56
2022-08-25T03:48:31.311Z,101953.88
2022-08-25T03:49:01.306Z,101949.07
2022-08-25T03:49:31.301Z,101953.23
2022-08-25T03:50:03.265Z,101949.07
2022-08-25T03:50:33.296Z,101951.90
2022-08-25T03:51:03.279Z,101952.56
2022-08-25T03:51:33.255Z,101949.73
2022-08-25T03:52:03.227Z,101946.26
2022-08-25T03:52:33.232Z,101950.40
2022-08-25T03:53:03.226Z,101952.23
2022-08-25T03:53:33.208Z,101948.76
2022-08-25T03:54:03.217Z,101949.41
2022-08-25T03:54:33.204Z,101954.03
2022-08-25T03:55:03.206Z,101952.88
2022-08-25T03:55:33.178Z,101953.21
2022-08-25T03:56:03.156Z,101952.05
2022-08-25T03:56:33.132Z,101956.05
2022-08-25T03:57:03.137Z,101953.55
2022-08-25T03:57:33.147Z,101951.23
2022-08-25T03:58:03.132Z,101949.25
2022-08-25T03:58:33.131Z,101953.23
2022-08-25T03:59:03.139Z,101950.73
2022-08-25T03:59:33.129Z,101952.38
2022-08-25T04:00:03.132Z,101950.08
2022-08-25T04:00:33.154Z,101948.59
2022-08-25T04:01:03.256Z,101950.41
2022-08-25T04:01:33.359Z,101953.73
2022-08-25T04:02:03.399Z,101955.70
2022-08-25T04:02:33.461Z,101954.41
2022-08-25T04:03:03.518Z,101955.05
2022-08-25T04:03:33.497Z,101952.40
2022-08-25T04:04:03.485Z,101950.75
2022-08-25T04:04:33.477Z,101954.55
2022-08-25T04:05:03.466Z,101954.73
2022-08-25T04:05:33.911Z,101951.41
2022-08-25T04:06:04.121Z,101951.92
2022-08-25T04:06:34.099Z,101951.75
2022-08-25T04:07:04.079Z,101953.39
2022-08-25T04:07:37.712Z,101951.26
2022-08-25T04:08:07.918Z,101948.28
2022-08-25T04:08:38.060Z,101951.23
2022-08-25T04:09:08.059Z,101949.91
2022-08-25T04:09:38.043Z,101949.59
2022-08-25T04:10:08.055Z,101948.94
2022-08-25T04:10:38.048Z,101947.42
2022-08-25T04:11:08.856Z,101948.41
2022-08-25T04:11:38.852Z,101951.08
2022-08-25T04:12:08.842Z,101955.40
2022-08-25T04:12:38.859Z,101949.11
2022-08-25T04:13:08.881Z,101954.73
2022-08-25T04:13:38.864Z,101953.25
2022-08-25T04:14:08.875Z,101954.72
2022-08-25T04:14:42.926Z,101952.09
2022-08-25T04:15:12.907Z,101952.55
2022-08-25T04:15:42.914Z,101953.88
2022-08-25T04:16:12.968Z,101956.73
2022-08-25T04:16:43.047Z,101952.55
2022-08-25T04:17:13.062Z,101956.73
2022-08-25T04:17:43.042Z,101953.89
2022-08-25T04:18:13.040Z,101955.40
2022-08-25T04:18:43.049Z,101959.86
2022-08-25T04:19:13.032Z,101955.38
2022-08-25T04:19:43.013Z,101959.70
2022-08-25T04:20:14.132Z,101961.34
2022-08-25T04:20:46.797Z,101957.72
2022-08-25T04:21:17.001Z,101960.00
2022-08-25T04:21:47.011Z,101960.03
2022-08-25T04:22:17.005Z,101959.38
2022-08-25T04:22:47.001Z,101959.34
2022-08-25T04:23:17.011Z,101959.20
2022-08-25T04:23:47.000Z,101958.69
2022-08-25T04:24:16.985Z,101956.55
2022-08-25T04:24:47.002Z,101961.16
2022-08-25T04:25:16.982Z,101956.21
2022-08-25T04:25:46.959Z,101955.89
2022-08-25T04:26:16.963Z,101957.20
2022-08-25T04:26:46.946Z,101959.38
2022-08-25T04:27:16.923Z,101957.87
2022-08-25T04:27:46.938Z,101953.06
2022-08-25T04:28:16.919Z,101955.05
2022-08-25T04:28:46.912Z,101952.89
2022-08-25T04:29:16.894Z,101949.73
2022-08-25T04:29:46.900Z,101948.24
2022-08-25T04:30:16.887Z,101951.73
2022-08-25T04:30:51.452Z,101948.58
2022-08-25T04:31:21.857Z,101948.41
2022-08-25T04:31:51.965Z,101946.92
2022-08-25T04:32:21.983Z,101953.55
2022-08-25T04:32:51.973Z,101949.07
2022-08-25T04:33:21.991Z,101951.39
2022-08-25T04:33:51.969Z,101954.72
2022-08-25T04:34:30.767Z,101954.53
2022-08-25T04:34:56.878Z,101954.04
2022-08-25T04:35:26.874Z,101955.70
2022-08-25T04:35:56.869Z,101957.19
2022-08-25T04:36:26.852Z,101961.16
2022-08-25T04:36:56.877Z,101960.84
2022-08-25T04:37:26.855Z,101958.02
2022-08-25T04:37:56.853Z,101963.00
2022-08-25T04:38:26.930Z,101961.83
2022-08-25T04:38:56.911Z,101967.97
2022-08-25T04:39:26.928Z,101965.48
2022-08-25T04:39:56.989Z,101968.12
2022-08-25T04:40:29.100Z,101964.64
2022-08-25T04:40:59.343Z,101963.15
2022-08-25T04:41:29.330Z,101963.13
2022-08-25T04:41:59.316Z,101967.45
2022-08-25T04:42:29.300Z,101967.45
2022-08-25T04:42:59.301Z,101966.44
2022-08-25T04:43:29.307Z,101963.31
2022-08-25T04:43:59.308Z,101966.62
2022-08-25T04:44:29.305Z,101969.42
2022-08-25T04:44:59.299Z,101966.45
2022-08-25T04:45:29.340Z,101968.45
2022-08-25T04:45:59.508Z,101965.78
2022-08-25T04:46:29.536Z,101962.63
2022-08-25T04:46:59.537Z,101965.80
2022-08-25T04:47:29.523Z,101965.30
2022-08-25T04:47:59.504Z,101966.30
2022-08-25T04:48:29.521Z,101963.97
2022-08-25T04:48:59.505Z,101967.45
2022-08-25T04:49:29.490Z,101965.62
2022-08-25T04:49:59.474Z,101965.80
2022-08-25T04:50:29.451Z,101960.00
2022-08-25T04:50:59.431Z,101965.45
2022-08-25T04:51:29.429Z,101965.61
2022-08-25T04:51:59.410Z,101964.14
2022-08-25T04:52:29.400Z,101966.10
2022-08-25T04:52:59.380Z,101962.81
2022-08-25T04:53:29.363Z,101965.45
2022-08-25T04:53:59.348Z,101965.94
2022-08-25T04:54:29.333Z,101967.78
2022-08-25T04:55:04.271Z,101966.44
2022-08-25T04:55:34.250Z,101967.28
2022-08-25T04:56:04.262Z,101961.95
2022-08-25T04:56:34.267Z,101964.27
2022-08-25T04:57:04.262Z,101964.61
2022-08-25T04:57:34.268Z,101967.26
2022-08-25T04:58:04.403Z,101966.59
2022-08-25T04:58:34.485Z,101964.27
2022-08-25T04:59:04.485Z,101963.45
2022-08-25T04:59:34.480Z,101967.73
2022-08-25T05:00:04.477Z,101970.38
2022-08-25T05:00:34.536Z,101966.58
2022-08-25T05:01:04.626Z,101965.75
2022-08-25T05:01:34.655Z,101965.42
2022-08-25T05:02:04.988Z,101966.73
2022-08-25T05:02:34.977Z,101964.42
2022-08-25T05:03:05.219Z,101964.92
2022-08-25T05:03:35.217Z,101963.27
2022-08-25T05:04:05.317Z,101964.59
2022-08-25T05:04:35.478Z,101964.59
2022-08-25T05:05:05.507Z,101967.70
2022-08-25T05:05:35.503Z,101967.38
2022-08-25T05:06:05.505Z,101964.73
2022-08-25T05:06:35.485Z,101968.70
2022-08-25T05:07:05.491Z,101967.20
2022-08-25T05:07:35.477Z,101965.53
2022-08-25T05:08:05.615Z,101968.36
2022-08-25T05:08:35.690Z,101965.17
2022-08-25T05:09:05.671Z,101969.98
2022-08-25T05:09:35.902Z,101967.83
2022-08-25T05:10:05.906Z,101968.48
2022-08-25T05:10:36.140Z,101969.98
2022-08-25T05:11:06.232Z,101962.02
2022-08-25T05:11:36.271Z,101967.00
2022-08-25T05:12:06.252Z,101963.84
2022-08-25T05:12:36.545Z,101964.63
2022-08-25T05:13:07.389Z,101962.31
2022-08-25T05:13:37.370Z,101965.62
2022-08-25T05:14:07.374Z,101958.34
2022-08-25T05:14:37.908Z,101955.02
2022-08-25T05:15:08.101Z,101955.88
2022-08-25T05:15:38.092Z,101958.52
2022-08-25T05:16:09.924Z,101960.18
2022-08-25T05:16:41.975Z,101954.39
2022-08-25T05:17:12.107Z,101955.54
2022-08-25T05:17:42.255Z,101955.56
2022-08-25T05:18:12.407Z,101956.05
2022-08-25T05:18:42.398Z,101952.92
2022-08-25T05:19:12.713Z,101954.56
2022-08-25T05:19:42.693Z,101952.24
2022-08-25T05:20:12.694Z,101949.27
2022-08-25T05:20:42.684Z,101951.41
2022-08-25T05:21:12.667Z,101951.58
2022-08-25T05:21:42.660Z,101946.09
2022-08-25T05:22:12.646Z,101951.41
2022-08-25T05:22:42.626Z,101948.74
2022-08-25T05:23:12.613Z,101954.39
2022-08-25T05:23:42.612Z,101943.45
2022-08-25T05:24:12.636Z,101942.45
2022-08-25T05:24:42.613Z,101944.11
2022-08-25T05:25:12.596Z,101938.83
2022-08-25T05:25:42.596Z,101941.64
2022-08-25T05:26:15.454Z,101941.77
2022-08-25T05:26:47.502Z,101944.75
2022-08-25T05:27:17.494Z,101944.92
2022-08-25T05:27:47.477Z,101942.59
2022-08-25T05:28:17.469Z,101942.42
2022-08-25T05:28:47.468Z,101946.73
2022-08-25T05:29:17.450Z,101946.40
2022-08-25T05:29:47.446Z,101943.75
2022-08-25T05:30:17.453Z,101941.61
2022-08-25T05:30:47.427Z,101945.59
2022-08-25T05:31:17.467Z,101942.09
2022-08-25T05:31:50.642Z,101948.39
2022-08-25T05:32:20.910Z,101938.45
2022-08-25T05:32:50.898Z,101940.45
2022-08-25T05:33:20.901Z,101943.58
2022-08-25T05:33:50.903Z,101941.28
2022-08-25T05:34:20.898Z,101940.62
2022-08-25T05:34:50.890Z,101940.94
2022-08-25T05:35:20.878Z,101940.10
2022-08-25T05:35:50.991Z,101938.78
2022-08-25T05:36:20.989Z,101942.44
2022-08-25T05:36:50.979Z,101938.28
2022-08-25T05:37:20.987Z,101937.62
2022-08-25T05:37:50.963Z,101938.12
2022-08-25T05:38:20.965Z,101938.95
2022-08-25T05:38:50.952Z,101940.28
2022-08-25T05:39:20.954Z,101940.12
2022-08-25T05:39:50.976Z,101938.77
2022-08-25T05:40:21.066Z,101934.96
2022-08-25T05:40:51.055Z,101935.11
2022-08-25T05:41:21.048Z,101943.39
2022-08-25T05:41:51.049Z,101935.61
2022-08-25T05:42:21.040Z,101936.78
2022-08-25T05:42:51.061Z,101934.45
2022-08-25T05:43:21.053Z,101936.61
2022-08-25T05:43:51.039Z,101937.78
2022-08-25T05:44:21.590Z,101939.59
2022-08-25T05:44:51.662Z,101939.74
2022-08-25T05:45:21.713Z,101941.41